createdAt,value
2022-08-28T00:00:29.468Z,69.00
2022-08-28T00:02:57.454Z,62.53
2022-08-28T00:05:27.901Z,71.05
2022-08-28T00:07:54.979Z,65.68
2022-08-28T00:10:24.110Z,73.03
2022-08-28T00:12:53.572Z,62.55
2022-08-28T00:15:24.493Z,68.20
2022-08-28T00:17:51.285Z,79.17
2022-08-28T00:20:19.980Z,68.90
2022-08-28T00:22:47.622Z,64.10
2022-08-28T00:25:16.497Z,70.43
2022-08-28T00:27:52.590Z,68.28
2022-08-28T00:30:25.134Z,64.25
2022-08-28T00:32:54.563Z,70.90
2022-08-28T00:35:23.753Z,72.60
2022-08-28T00:37:51.916Z,73.43
2022-08-28T00:40:28.642Z,68.70
2022-08-28T00:43:04.436Z,66.97
2022-08-28T00:45:35.978Z,72.68
2022-08-28T00:48:04.339Z,69.03
2022-08-28T00:50:52.645Z,70.68
2022-08-28T00:53:20.541Z,73.05
2022-08-28T00:55:50.410Z,69.68
2022-08-28T00:58:18.108Z,70.05
2022-08-28T01:00:44.907Z,71.68
2022-08-28T01:03:11.768Z,65.10
2022-08-28T01:05:40.282Z,73.28
2022-08-28T01:08:07.144Z,68.60
2022-08-28T01:10:34.956Z,69.95
2022-08-28T01:13:02.968Z,70.72
2022-08-28T01:15:35.489Z,73.38
2022-08-28T01:18:08.627Z,70.40
2022-08-28T01:20:38.426Z,67.82
2022-08-28T01:23:22.457Z,72.43
2022-08-28T01:25:49.419Z,69.03
2022-08-28T01:28:16.765Z,65.32
2022-08-28T01:30:46.411Z,66.60
2022-08-28T01:33:14.858Z,68.90
2022-08-28T01:35:45.516Z,78.07
2022-08-28T01:38:12.577Z,77.15
2022-08-28T01:40:47.181Z,77.70
2022-08-28T01:43:21.137Z,77.57
2022-08-28T01:45:54.269Z,67.85
2022-08-28T01:48:23.653Z,75.03
2022-08-28T01:50:50.864Z,76.93
2022-08-28T01:53:20.077Z,79.22
2022-08-28T01:55:53.507Z,91.57
2022-08-28T01:58:21.692Z,85.13
2022-08-28T02:00:48.681Z,83.35
2022-08-28T02:03:16.256Z,88.65
2022-08-28T02:05:43.712Z,87.85
2022-08-28T02:08:10.778Z,94.25
2022-08-28T02:10:39.679Z,92.65
2022-08-28T02:13:07.692Z,94.97
2022-08-28T02:15:36.146Z,91.60
2022-08-28T02:18:04.130Z,86.82
2022-08-28T02:20:31.197Z,89.82
2022-08-28T02:22:58.774Z,91.82
2022-08-28T02:25:27.215Z,88.82
2022-08-28T02:27:54.668Z,92.15
2022-08-28T02:30:21.626Z,84.00
2022-08-28T02:32:48.409Z,92.30
2022-08-28T02:35:17.262Z,92.55
2022-08-28T02:37:46.001Z,90.40
2022-08-28T02:40:17.252Z,93.93
2022-08-28T02:42:44.407Z,93.70
2022-08-28T02:45:13.835Z,86.75
2022-08-28T02:47:43.723Z,88.88
2022-08-28T02:50:13.455Z,84.82
2022-08-28T02:52:41.400Z,93.07
2022-08-28T02:55:09.848Z,88.85
2022-08-28T02:57:37.701Z,79.63
2022-08-28T03:00:06.855Z,90.45
2022-08-28T03:02:34.202Z,87.28
2022-08-28T03:05:01.078Z,83.10
2022-08-28T03:07:29.391Z,87.05
2022-08-28T03:09:56.543Z,85.28
2022-08-28T03:12:26.495Z,84.25
2022-08-28T03:14:53.823Z,90.25
2022-08-28T03:17:22.122Z,93.47
2022-08-28T03:19:50.264Z,85.50
2022-08-28T03:22:38.487Z,85.25
2022-08-28T03:25:06.914Z,79.38
2022-08-28T03:27:34.171Z,88.95
2022-08-28T03:30:02.838Z,87.97
2022-08-28T03:32:31.773Z,82.93
2022-08-28T03:34:58.614Z,81.05
2022-08-28T03:37:25.759Z,80.00
2022-08-28T03:39:53.468Z,89.38
2022-08-28T03:42:20.359Z,82.25
2022-08-28T03:44:49.096Z,88.05
2022-08-28T03:47:16.765Z,80.97
2022-08-28T03:49:45.407Z,82.50
2022-08-28T03:52:12.719Z,83.72
2022-08-28T03:54:39.556Z,79.50
2022-08-28T03:57:07.608Z,83.38
2022-08-28T03:59:35.621Z,84.53
2022-08-28T04:02:02.577Z,82.85
2022-08-28T04:04:29.419Z,81.50
2022-08-28T04:06:56.193Z,76.88
2022-08-28T04:09:23.064Z,85.45
2022-08-28T04:11:49.860Z,74.15
2022-08-28T04:14:16.683Z,80.80
2022-08-28T04:16:43.781Z,81.28
2022-08-28T04:19:10.695Z,78.53
2022-08-28T04:21:37.549Z,76.88
2022-08-28T04:24:09.021Z,82.97
2022-08-28T04:26:36.861Z,83.70
2022-08-28T04:29:04.973Z,82.47
2022-08-28T04:31:32.966Z,76.05
2022-08-28T04:34:02.076Z,86.63
2022-08-28T04:36:29.407Z,79.50
2022-08-28T04:38:57.802Z,77.72
2022-08-28T04:41:24.571Z,74.30
2022-08-28T04:43:52.839Z,80.57
2022-08-28T04:46:20.570Z,73.07
2022-08-28T04:48:47.397Z,74.03
2022-08-28T04:51:17.913Z,77.18
2022-08-28T04:53:44.739Z,78.82
2022-08-28T04:56:14.062Z,72.15
2022-08-28T04:58:43.046Z,82.38
2022-08-28T05:01:13.799Z,74.40
2022-08-28T05:03:41.034Z,80.30
2022-08-28T05:06:09.520Z,80.07
2022-08-28T05:08:36.617Z,80.00
2022-08-28T05:11:22.074Z,75.93
2022-08-28T05:14:04.506Z,70.00
2022-08-28T05:16:32.502Z,80.22
2022-08-28T05:19:01.336Z,69.57
2022-08-28T05:21:28.451Z,72.28
2022-08-28T05:23:57.633Z,72.47
2022-08-28T05:26:26.833Z,77.53
2022-08-28T05:28:56.737Z,75.03
2022-08-28T05:31:25.133Z,74.15
2022-08-28T05:33:53.814Z,78.95
2022-08-28T05:36:23.302Z,78.43
2022-08-28T05:38:56.679Z,73.72
2022-08-28T05:41:27.559Z,75.63
2022-08-28T05:43:54.362Z,79.03
2022-08-28T05:46:22.409Z,78.40
2022-08-28T05:48:49.694Z,72.75
2022-08-28T05:51:20.280Z,72.55
2022-08-28T05:53:50.058Z,78.15
2022-08-28T05:56:26.918Z,73.25
2022-08-28T05:58:53.701Z,70.78
2022-08-28T06:01:29.098Z,76.70
2022-08-28T06:04:01.662Z,79.07
2022-08-28T06:06:31.541Z,75.32
2022-08-28T06:09:00.470Z,75.43
2022-08-28T06:11:30.927Z,77.00
2022-08-28T06:14:02.460Z,74.50
2022-08-28T06:16:32.726Z,72.30
2022-08-28T06:19:00.681Z,81.30
2022-08-28T06:21:28.600Z,81.45
2022-08-28T06:23:55.410Z,78.55
2022-08-28T06:26:23.096Z,84.68
2022-08-28T06:28:49.961Z,82.18
2022-08-28T06:31:24.249Z,79.65
2022-08-28T06:33:54.313Z,81.45
2022-08-28T06:36:21.880Z,79.57
2022-08-28T06:38:49.064Z,81.93
2022-08-28T06:41:16.203Z,74.10
2022-08-28T06:43:43.364Z,81.80
2022-08-28T06:46:10.246Z,88.78
2022-08-28T06:48:37.253Z,87.68
2022-08-28T06:51:07.474Z,88.97
2022-08-28T06:53:34.520Z,88.03
2022-08-28T06:56:08.732Z,83.65
2022-08-28T06:58:38.833Z,81.63
2022-08-28T07:01:11.241Z,75.80
2022-08-28T07:03:42.704Z,80.53
2022-08-28T07:06:14.103Z,82.47
2022-08-28T07:08:42.524Z,83.55
2022-08-28T07:11:25.954Z,85.90
2022-08-28T07:13:53.905Z,68.60
2022-08-28T07:16:23.059Z,78.60
2022-08-28T07:18:50.048Z,73.20
2022-08-28T07:21:16.927Z,74.95
2022-08-28T07:23:45.219Z,74.18
2022-08-28T07:26:20.948Z,96.00
2022-08-28T07:28:47.714Z,75.32
2022-08-28T07:31:18.060Z,72.28
2022-08-28T07:33:45.404Z,74.72
2022-08-28T07:36:25.578Z,82.05
2022-08-28T07:38:56.883Z,72.05
2022-08-28T07:41:27.063Z,71.68
2022-08-28T07:44:12.358Z,68.47
2022-08-28T07:46:40.667Z,74.60
2022-08-28T07:49:09.031Z,69.13
2022-08-28T07:51:37.038Z,65.43
2022-08-28T07:54:04.741Z,66.20
2022-08-28T07:56:32.243Z,76.90
2022-08-28T07:59:01.224Z,66.75
2022-08-28T08:01:30.926Z,74.38
2022-08-28T08:04:01.486Z,69.30
2022-08-28T08:06:34.279Z,69.93
2022-08-28T08:09:02.266Z,65.68
2022-08-28T08:11:32.629Z,65.30
2022-08-28T08:14:05.602Z,67.68
2022-08-28T08:16:39.315Z,68.72
2022-08-28T08:19:10.161Z,62.60
2022-08-28T08:21:38.091Z,63.22
2022-08-28T08:24:05.574Z,69.30
2022-08-28T08:26:33.248Z,64.18
2022-08-28T08:29:00.896Z,64.60
2022-08-28T08:31:33.900Z,58.38
2022-08-28T08:34:05.102Z,60.25
2022-08-28T08:36:34.682Z,86.28
2022-08-28T08:39:02.070Z,71.13
2022-08-28T08:41:57.718Z,67.53
2022-08-28T08:44:55.802Z,68.25
2022-08-28T08:47:27.031Z,66.35
2022-08-28T08:50:02.843Z,69.20
2022-08-28T08:52:33.457Z,69.20
2022-08-28T08:55:10.035Z,71.20
2022-08-28T08:57:39.114Z,63.08
2022-08-28T09:00:15.817Z,61.30
2022-08-28T09:03:19.545Z,68.35
2022-08-28T09:05:53.377Z,59.25
2022-08-28T09:08:40.106Z,61.83
2022-08-28T09:11:34.374Z,59.28
2022-08-28T09:14:06.956Z,56.65
2022-08-28T09:16:38.413Z,55.88
2022-08-28T09:21:35.453Z,57.17
2022-08-28T09:24:10.898Z,58.95
2022-08-28T09:26:39.583Z,56.70
2022-08-28T09:29:15.986Z,53.25
2022-08-28T09:31:44.110Z,54.47
2022-08-28T09:34:28.549Z,56.90
2022-08-28T09:36:57.491Z,60.17
2022-08-28T09:39:35.912Z,61.08
2022-08-28T09:42:40.906Z,57.78
2022-08-28T09:45:18.410Z,52.25
2022-08-28T09:47:49.716Z,54.90
2022-08-28T09:52:46.622Z,42.50
2022-08-28T09:55:22.108Z,47.05
2022-08-28T09:57:49.060Z,43.97
2022-08-28T10:00:16.642Z,41.90
2022-08-28T10:03:03.302Z,35.75
2022-08-28T10:05:41.742Z,31.40
2022-08-28T10:08:25.837Z,38.33
2022-08-28T10:10:58.756Z,38.20
2022-08-28T10:13:38.570Z,32.20
2022-08-28T10:16:28.920Z,34.03
2022-08-28T10:19:18.680Z,32.10
2022-08-28T10:21:48.266Z,34.90
2022-08-28T10:24:30.501Z,29.73
2022-08-28T10:27:12.733Z,35.25
2022-08-28T10:30:12.524Z,36.33
2022-08-28T10:33:02.252Z,28.00
2022-08-28T10:35:41.306Z,32.28
2022-08-28T10:38:41.925Z,29.63
2022-08-28T10:41:25.914Z,34.17
2022-08-28T10:43:54.720Z,29.33
2022-08-28T10:46:27.690Z,33.92
2022-08-28T10:49:03.196Z,37.03
2022-08-28T10:51:37.650Z,31.63
2022-08-28T10:54:18.891Z,27.73
2022-08-28T10:56:56.818Z,34.22
2022-08-28T10:59:25.769Z,33.58
2022-08-28T11:01:52.777Z,33.47
2022-08-28T11:04:25.688Z,30.95
2022-08-28T11:07:10.239Z,29.42
2022-08-28T11:09:46.054Z,31.73
2022-08-28T11:12:19.884Z,39.25
2022-08-28T11:14:51.045Z,31.95
2022-08-28T11:17:27.770Z,36.50
2022-08-28T11:20:09.797Z,29.92
2022-08-28T11:22:49.347Z,32.45
2022-08-28T11:25:32.470Z,29.67
2022-08-28T11:28:32.508Z,31.02
2022-08-28T11:31:05.151Z,29.55
2022-08-28T11:33:50.556Z,30.75
2022-08-28T11:36:20.059Z,32.47
2022-08-28T11:39:19.431Z,32.63
2022-08-28T11:42:10.787Z,33.15
2022-08-28T11:44:45.860Z,33.55
2022-08-28T11:47:36.959Z,28.50
2022-08-28T11:50:20.096Z,29.92
2022-08-28T11:52:49.557Z,29.52
2022-08-28T11:55:31.021Z,32.03
2022-08-28T12:00:33.611Z,33.97
2022-08-28T12:03:24.233Z,31.67
2022-08-28T12:05:55.562Z,30.90
2022-08-28T12:08:53.231Z,40.33
2022-08-28T12:11:44.953Z,34.85
2022-08-28T12:14:46.891Z,32.53
2022-08-28T12:17:17.900Z,34.70
2022-08-28T12:19:55.273Z,36.97
2022-08-28T12:22:44.620Z,36.33
2022-08-28T12:25:24.877Z,33.67
2022-08-28T12:27:53.216Z,37.63
2022-08-28T12:30:32.407Z,39.75
2022-08-28T12:33:32.021Z,41.97
2022-08-28T12:36:04.601Z,33.08
2022-08-28T12:38:33.562Z,35.35
2022-08-28T12:41:02.586Z,35.10
2022-08-28T12:43:45.669Z,32.10
2022-08-28T12:46:36.397Z,37.13
2022-08-28T12:49:25.302Z,32.58
2022-08-28T12:52:07.834Z,25.75
2022-08-28T12:54:35.359Z,32.47
2022-08-28T12:57:08.383Z,31.30
2022-08-28T12:59:50.226Z,28.73
2022-08-28T13:02:36.377Z,32.13
2022-08-28T13:05:12.087Z,28.55
2022-08-28T13:07:51.420Z,32.97
2022-08-28T13:10:24.553Z,33.90
2022-08-28T13:13:05.443Z,32.60
2022-08-28T13:18:35.440Z,33.28
2022-08-28T13:21:17.461Z,33.83
2022-08-28T13:24:00.144Z,34.85
2022-08-28T13:26:33.201Z,35.40
2022-08-28T13:29:02.906Z,31.85
2022-08-28T13:31:35.903Z,33.63
2022-08-28T13:34:07.096Z,37.05
2022-08-28T13:39:13.622Z,34.35
2022-08-28T13:41:41.699Z,39.00
2022-08-28T13:44:09.190Z,25.98
2022-08-28T13:46:36.156Z,40.28
2022-08-28T13:49:02.958Z,40.50
2022-08-28T13:51:29.833Z,33.67
2022-08-28T13:53:58.086Z,31.55
2022-08-28T13:56:27.644Z,30.90
2022-08-28T13:58:57.847Z,30.45
2022-08-28T14:01:48.680Z,30.42
2022-08-28T14:04:15.866Z,29.67
2022-08-28T14:06:44.131Z,32.55
2022-08-28T14:09:17.545Z,31.42
2022-08-28T14:11:49.741Z,35.85
2022-08-28T14:14:17.142Z,32.15
2022-08-28T14:16:45.659Z,37.75
2022-08-28T14:19:12.883Z,37.05
2022-08-28T14:21:41.570Z,34.00
2022-08-28T14:24:09.224Z,29.13
2022-08-28T14:26:36.392Z,33.88
2022-08-28T14:29:06.638Z,29.80
2022-08-28T14:31:36.047Z,27.40
2022-08-28T14:34:05.563Z,32.33
2022-08-28T14:36:33.318Z,29.80
2022-08-28T14:39:06.198Z,30.83
2022-08-28T14:41:34.556Z,30.58
2022-08-28T14:44:02.104Z,34.22
2022-08-28T14:46:34.195Z,33.33
2022-08-28T14:49:03.916Z,39.45
2022-08-28T14:51:33.394Z,34.65
2022-08-28T14:54:01.713Z,39.28
2022-08-28T14:56:31.556Z,36.47
2022-08-28T14:59:00.301Z,38.90
2022-08-28T15:01:40.469Z,40.72
2022-08-28T15:04:11.259Z,42.20
2022-08-28T15:06:38.462Z,46.55
2022-08-28T15:09:05.549Z,42.97
2022-08-28T15:11:32.432Z,44.10
2022-08-28T15:13:59.217Z,50.08
2022-08-28T15:16:31.144Z,49.83
2022-08-28T15:18:59.401Z,47.20
2022-08-28T15:21:35.439Z,47.15
2022-08-28T15:24:04.031Z,58.70
2022-08-28T15:26:32.103Z,49.78
2022-08-28T15:29:02.301Z,55.42
2022-08-28T15:31:31.236Z,52.42
2022-08-28T15:33:58.480Z,51.10
2022-08-28T15:36:25.313Z,51.60
2022-08-28T15:39:10.882Z,54.83
2022-08-28T15:41:38.558Z,56.13
2022-08-28T15:44:05.883Z,58.03
2022-08-28T15:46:34.511Z,58.08
2022-08-28T15:49:04.141Z,57.55
2022-08-28T15:51:35.884Z,61.35
2022-08-28T15:54:03.010Z,63.33
2022-08-28T15:56:29.837Z,65.00
2022-08-28T15:58:56.822Z,64.53
2022-08-28T16:01:23.918Z,59.97
2022-08-28T16:03:50.825Z,59.83
2022-08-28T16:06:20.835Z,62.25
2022-08-28T16:08:49.148Z,69.20
2022-08-28T16:11:20.829Z,67.28
2022-08-28T16:13:47.937Z,62.10
2022-08-28T16:16:14.808Z,67.32
2022-08-28T16:18:41.939Z,75.57
2022-08-28T16:21:09.223Z,62.78
2022-08-28T16:23:37.217Z,62.28
2022-08-28T16:26:05.863Z,69.82
2022-08-28T16:28:33.363Z,67.28
2022-08-28T16:31:11.684Z,65.07
2022-08-28T16:33:47.750Z,71.35
2022-08-28T16:36:15.759Z,66.28
2022-08-28T16:38:46.160Z,73.57
2022-08-28T16:41:19.642Z,70.65
2022-08-28T16:43:47.242Z,65.20
2022-08-28T16:46:20.092Z,71.72
2022-08-28T16:48:48.042Z,74.35
2022-08-28T16:51:16.260Z,73.13
2022-08-28T16:53:43.474Z,79.22
2022-08-28T16:56:12.229Z,77.03
2022-08-28T16:58:39.944Z,77.07
2022-08-28T17:01:08.353Z,77.22
2022-08-28T17:03:38.708Z,93.38
2022-08-28T17:06:18.504Z,73.93
2022-08-28T17:08:45.384Z,76.75
2022-08-28T17:11:12.970Z,81.80
2022-08-28T17:13:40.354Z,82.93
2022-08-28T17:16:08.178Z,74.95
2022-08-28T17:18:35.376Z,72.32
2022-08-28T17:21:20.849Z,77.55
2022-08-28T17:23:47.903Z,81.13
2022-08-28T17:26:15.417Z,82.40
2022-08-28T17:28:42.988Z,82.15
2022-08-28T17:31:11.291Z,80.95
2022-08-28T17:33:40.567Z,91.97
2022-08-28T17:36:08.857Z,87.60
2022-08-28T17:38:48.627Z,83.15
2022-08-28T17:41:15.453Z,90.22
2022-08-28T17:43:42.311Z,86.28
2022-08-28T17:46:09.189Z,84.28
2022-08-28T17:48:37.012Z,84.13
2022-08-28T17:51:04.830Z,84.60
2022-08-28T17:53:31.705Z,83.60
2022-08-28T17:55:59.114Z,88.97
2022-08-28T17:58:25.902Z,97.25
2022-08-28T18:00:52.998Z,98.78
2022-08-28T18:03:19.861Z,98.80
2022-08-28T18:05:46.668Z,100.38
2022-08-28T18:08:13.702Z,105.50
2022-08-28T18:10:40.779Z,99.53
2022-08-28T18:13:07.641Z,107.53
2022-08-28T18:15:34.786Z,108.20
2022-08-28T18:18:04.814Z,108.15
2022-08-28T18:20:31.675Z,109.65
2022-08-28T18:22:58.555Z,101.40
2022-08-28T18:25:50.730Z,109.47
2022-08-28T18:28:22.471Z,101.60
2022-08-28T18:30:51.002Z,100.53
2022-08-28T18:33:22.263Z,96.05
2022-08-28T18:35:50.508Z,102.38
2022-08-28T18:38:18.532Z,96.72
2022-08-28T18:40:45.586Z,92.20
2022-08-28T18:43:13.882Z,88.20
2022-08-28T18:45:40.850Z,90.30
2022-08-28T18:48:12.602Z,89.40
2022-08-28T18:50:43.221Z,80.80
2022-08-28T18:53:12.824Z,86.47
2022-08-28T18:55:39.711Z,80.45
2022-08-28T18:58:06.988Z,83.55
2022-08-28T19:00:34.405Z,76.55
2022-08-28T19:03:01.394Z,84.13
2022-08-28T19:05:28.375Z,82.10
2022-08-28T19:07:55.179Z,78.65
2022-08-28T19:10:33.447Z,80.50
2022-08-28T19:13:01.964Z,77.30
2022-08-28T19:15:29.703Z,82.57
2022-08-28T19:17:56.814Z,78.78
2022-08-28T19:20:23.931Z,75.15
2022-08-28T19:22:50.785Z,71.35
2022-08-28T19:25:27.883Z,75.15
2022-08-28T19:27:56.414Z,79.05
2022-08-28T19:30:28.066Z,74.10
2022-08-28T19:32:55.299Z,69.93
2022-08-28T19:35:24.574Z,71.10
2022-08-28T19:37:52.667Z,70.60
2022-08-28T19:40:20.678Z,77.82
2022-08-28T19:42:49.898Z,71.00
2022-08-28T19:45:17.269Z,67.88
2022-08-28T19:47:44.204Z,69.53
2022-08-28T19:50:12.886Z,67.68
2022-08-28T19:52:40.212Z,73.40
2022-08-28T19:55:08.003Z,65.28
2022-08-28T19:57:35.523Z,68.32
2022-08-28T20:00:04.178Z,65.90
2022-08-28T20:02:31.172Z,65.82
2022-08-28T20:04:58.043Z,63.00
2022-08-28T20:07:25.147Z,71.75
2022-08-28T20:09:52.434Z,62.25
2022-08-28T20:12:19.981Z,71.07
2022-08-28T20:14:47.065Z,63.90
2022-08-28T20:17:14.138Z,62.58
2022-08-28T20:19:41.584Z,59.80
2022-08-28T20:22:08.711Z,64.65
2022-08-28T20:24:35.547Z,60.05
2022-08-28T20:27:02.592Z,62.70
2022-08-28T20:29:29.691Z,61.47
2022-08-28T20:31:56.502Z,58.35
2022-08-28T20:34:24.570Z,58.03
2022-08-28T20:36:51.558Z,63.47
2022-08-28T20:39:20.073Z,58.10
2022-08-28T20:41:49.301Z,60.25
2022-08-28T20:44:18.550Z,55.90
2022-08-28T20:46:51.176Z,55.40
2022-08-28T20:49:22.197Z,58.72
2022-08-28T20:51:52.796Z,53.38
2022-08-28T20:54:21.539Z,52.67
2022-08-28T20:56:49.365Z,49.10
2022-08-28T20:59:16.845Z,51.75
2022-08-28T21:01:43.741Z,48.33
2022-08-28T21:04:10.849Z,52.65
2022-08-28T21:06:38.366Z,47.22
2022-08-28T21:09:05.230Z,51.63
2022-08-28T21:11:32.067Z,49.58
2022-08-28T21:13:58.934Z,44.28
2022-08-28T21:16:26.161Z,46.10
2022-08-28T21:19:14.560Z,46.95
2022-08-28T21:21:40.859Z,49.38
2022-08-28T21:24:10.754Z,44.67
2022-08-28T21:26:40.578Z,45.95
2022-08-28T21:29:09.957Z,45.50
2022-08-28T21:31:41.326Z,50.13
2022-08-28T21:34:09.512Z,45.78
2022-08-28T21:36:38.453Z,46.15
2022-08-28T21:39:06.168Z,50.35
2022-08-28T21:41:33.260Z,48.50
2022-08-28T21:44:00.341Z,50.55
2022-08-28T21:46:27.819Z,46.38
2022-08-28T21:48:56.288Z,44.05
2022-08-28T21:51:24.488Z,48.65
2022-08-28T21:53:51.542Z,44.47
2022-08-28T21:56:22.857Z,49.70
2022-08-28T21:58:51.108Z,46.20
2022-08-28T22:01:20.632Z,44.60
2022-08-28T22:03:47.541Z,44.75
2022-08-28T22:06:18.495Z,43.92
2022-08-28T22:08:47.169Z,47.67
2022-08-28T22:11:15.729Z,54.42
2022-08-28T22:13:48.537Z,47.25
2022-08-28T22:16:15.981Z,50.90
2022-08-28T22:18:42.917Z,49.65
2022-08-28T22:21:34.518Z,46.40
2022-08-28T22:24:01.443Z,48.78
2022-08-28T22:26:28.474Z,47.80
2022-08-28T22:28:56.134Z,52.72
2022-08-28T22:31:23.984Z,50.00
2022-08-28T22:33:52.257Z,52.85
2022-08-28T22:36:20.750Z,49.78
2022-08-28T22:38:53.202Z,52.33
2022-08-28T22:41:20.830Z,56.03
2022-08-28T22:43:49.858Z,53.17
2022-08-28T22:46:17.025Z,56.40
2022-08-28T22:48:43.904Z,54.60
2022-08-28T22:51:14.063Z,57.65
2022-08-28T22:53:43.338Z,53.45
2022-08-28T22:56:11.509Z,62.70
2022-08-28T22:58:39.617Z,55.03
2022-08-28T23:01:11.863Z,60.25
2022-08-28T23:03:39.653Z,59.10
2022-08-28T23:06:07.030Z,54.65
2022-08-28T23:08:34.324Z,51.45
2022-08-28T23:11:01.622Z,59.42
2022-08-28T23:13:30.036Z,57.75
2022-08-28T23:15:56.922Z,51.22
2022-08-28T23:18:24.797Z,55.70
2022-08-28T23:20:52.569Z,57.90
2022-08-28T23:23:19.618Z,55.75
2022-08-28T23:25:46.786Z,53.35
2022-08-28T23:28:13.629Z,56.50
2022-08-28T23:30:41.407Z,65.65
2022-08-28T23:33:19.749Z,56.45
2022-08-28T23:35:50.438Z,63.17
2022-08-28T23:38:17.274Z,65.53
2022-08-28T23:40:44.555Z,62.45
2022-08-28T23:43:11.995Z,61.08
2022-08-28T23:45:40.544Z,66.32
2022-08-28T23:48:08.275Z,64.65
2022-08-28T23:50:35.617Z,64.75
2022-08-28T23:53:04.034Z,57.20
2022-08-28T23:55:31.538Z,59.65
2022-08-28T23:58:00.592Z,62.20
